Time;durP1;ratioP1;P1;durP2;ratioP2;P2;SDS_P1;SDS_P2;PMS_P1;PMS_P2;Temp;Humidity;BMP_temperature;BMP_pressure;BME280_temperature;BME280_humidity;BME280_pressure;Samples;Min_cycle;Max_cycle;Signal;HPM_P1;HPM_P2
2023/02/10 00:01:36;;;;;;;32.70;17.20;;;;;;;-2.15;70.37;101903.38;107267;1259;97052;-56
2023/02/10 00:04:16;;;;;;;36.30;19.00;;;;;;;-2.17;70.88;101893.45;107290;1257;87238;-58
2023/02/10 00:06:53;;;;;;;29.30;17.40;;;;;;;-2.16;70.87;101891.63;107249;1257;94176;-61
2023/02/10 00:09:33;;;;;;;30.80;16.90;;;;;;;-2.15;71.08;101877.79;107305;1259;80439;-57
2023/02/10 00:12:25;;;;;;;35.10;17.90;;;;;;;-2.10;71.27;101873.86;107300;1257;80934;-58
2023/02/10 00:15:07;;;;;;;34.20;18.40;;;;;;;-2.04;71.17;101866.48;107286;1259;96837;-60
2023/02/10 00:17:50;;;;;;;33.80;18.60;;;;;;;-1.99;71.20;101862.55;107323;1257;89246;-57
2023/02/10 00:20:29;;;;;;;33.50;18.60;;;;;;;-1.96;71.42;101858.16;107304;1259;94624;-59
2023/02/10 00:23:16;;;;;;;34.50;19.00;;;;;;;-1.95;71.25;101855.64;107293;1257;78831;-56
2023/02/10 00:25:55;;;;;;;34.10;18.50;;;;;;;-1.97;71.27;101854.89;107288;1257;80215;-57
2023/02/10 00:28:41;;;;;;;29.00;16.40;;;;;;;-2.02;71.26;101861.63;107287;1256;98616;-57
2023/02/10 00:31:21;;;;;;;30.30;16.40;;;;;;;-2.07;71.25;101860.10;107307;1257;86768;-57
2023/02/10 00:34:05;;;;;;;36.00;17.50;;;;;;;-2.08;71.35;101860.18;107304;1259;94824;-58
2023/02/10 00:36:47;;;;;;;34.30;17.80;;;;;;;-2.10;71.62;101867.87;107267;1259;81500;-60
2023/02/10 00:39:29;;;;;;;30.70;16.60;;;;;;;-2.11;71.49;101861.39;107310;1257;82586;-60
2023/02/10 00:42:09;;;;;;;34.70;17.40;;;;;;;-2.13;71.57;101864.12;107250;1257;97539;-60
2023/02/10 00:44:54;;;;;;;33.00;16.40;;;;;;;-2.17;71.59;101855.83;107323;1257;88489;-60
2023/02/10 00:47:33;;;;;;;31.30;16.80;;;;;;;-2.20;71.91;101858.14;107312;1258;95560;-57
2023/02/10 00:50:09;;;;;;;29.70;16.30;;;;;;;-2.25;71.71;101856.05;107280;1259;77159;-57
2023/02/10 00:52:51;;;;;;;29.80;16.40;;;;;;;-2.30;72.03;101854.15;107338;1256;81876;-58
2023/02/10 00:55:28;;;;;;;33.50;17.20;;;;;;;-2.35;71.82;101852.27;107191;1259;98087;-56
2023/02/10 00:58:07;;;;;;;33.10;17.50;;;;;;;-2.42;72.14;101851.90;107273;1259;88864;-59
2023/02/10 01:00:44;;;;;;;33.10;17.90;;;;;;;-2.47;72.14;101852.30;107269;1259;95370;-59
2023/02/10 01:03:24;;;;;;;33.30;17.40;;;;;;;-2.51;72.23;101855.87;107298;1257;82328;-56
2023/02/10 01:06:04;;;;;;;32.30;17.70;;;;;;;-2.53;72.40;101853.48;107296;1257;82748;-56
2023/02/10 01:08:42;;;;;;;32.90;18.00;;;;;;;-2.52;72.75;101857.30;107486;1254;97500;-57
2023/02/10 01:11:27;;;;;;;35.20;17.30;;;;;;;-2.53;72.52;101857.88;107484;1258;87525;-57
2023/02/10 01:14:09;;;;;;;29.90;17.10;;;;;;;-2.51;72.70;101859.23;107421;1254;93363;-60
2023/02/10 01:16:48;;;;;;;33.60;17.40;;;;;;;-2.53;72.58;101861.76;107450;1254;77374;-60
2023/02/10 01:19:34;;;;;;;33.20;16.30;;;;;;;-2.53;72.75;101860.38;107477;1257;82828;-55
2023/02/10 01:22:17;;;;;;;26.60;16.60;;;;;;;-2.58;72.82;101855.13;107458;1259;98098;-56
2023/02/10 01:24:54;;;;;;;28.80;16.40;;;;;;;-2.61;72.79;101853.33;107413;1257;89304;-57
2023/02/10 01:27:39;;;;;;;31.80;16.20;;;;;;;-2.67;72.75;101852.02;107473;1254;93781;-59
2023/02/10 01:30:17;;;;;;;31.80;17.10;;;;;;;-2.73;72.74;101849.67;107291;1254;79911;-59
2023/02/10 01:32:55;;;;;;;32.60;17.90;;;;;;;-2.78;72.73;101846.37;107470;1254;83205;-60
2023/02/10 01:35:39;;;;;;;35.20;17.90;;;;;;;-2.83;72.97;101845.20;107429;1255;96549;-59
2023/02/10 01:38:14;;;;;;;;;;;;;;;-2.86;73.13;101848.86;107475;1259;89240;-58
2023/02/10 01:40:54;;;;;;;30.80;17.40;;;;;;;-2.89;73.33;101852.52;107429;1254;94399;-58
2023/02/10 01:43:35;;;;;;;30.60;18.10;;;;;;;-2.91;73.16;101852.45;107408;1254;81437;-60
2023/02/10 01:46:17;;;;;;;31.00;17.80;;;;;;;-2.89;73.59;101843.70;107438;1259;83119;-60
2023/02/10 01:49:00;;;;;;;30.80;17.90;;;;;;;-2.88;73.41;101837.68;107495;1254;97725;-57
2023/02/10 01:51:46;;;;;;;32.30;18.10;;;;;;;-2.86;73.75;101831.92;107438;1259;89636;-57
2023/02/10 01:54:27;;;;;;;32.20;16.90;;;;;;;-2.86;73.75;101834.93;107467;1259;95886;-59
2023/02/10 01:57:05;;;;;;;35.10;17.80;;;;;;;-2.90;73.55;101829.27;107465;1259;79035;-60
2023/02/10 01:59:43;;;;;;;30.80;17.30;;;;;;;-2.91;73.40;101829.88;107475;1259;82390;-56
2023/02/10 02:02:22;;;;;;;35.00;18.70;;;;;;;-2.93;73.66;101832.41;107417;1259;98197;-50
2023/02/10 02:05:08;;;;;;;32.50;17.60;;;;;;;-2.95;73.83;101835.15;107437;1254;89419;-55
2023/02/10 02:07:53;;;;;;;38.30;19.30;;;;;;;-2.98;73.77;101833.49;107469;1259;94746;-57
2023/02/10 02:10:46;;;;;;;35.90;18.00;;;;;;;-3.02;73.63;101827.86;107387;1254;80815;-57
2023/02/10 02:13:36;;;;;;;32.70;17.80;;;;;;;-3.01;74.10;101824.32;107441;1254;81315;-57
2023/02/10 02:16:23;;;;;;;30.40;17.40;;;;;;;-2.98;74.16;101816.95;107307;1254;98755;-57
2023/02/10 02:19:13;;;;;;;32.20;17.50;;;;;;;-2.98;74.09;101813.77;107451;1258;88705;-60
2023/02/10 02:22:46;;;;;;;34.40;18.50;;;;;;;-2.97;73.99;101813.55;107417;1254;95268;-60
2023/02/10 02:25:47;;;;;;;30.30;16.40;;;;;;;-2.98;74.09;101822.06;107430;1254;79562;-59
2023/02/10 02:28:39;;;;;;;30.70;16.90;;;;;;;-3.06;73.81;101826.80;107487;1254;82755;-60
2023/02/10 02:31:57;;;;;;;32.50;17.00;;;;;;;-3.13;74.03;101833.84;107406;1258;98350;-61
2023/02/10 02:34:41;;;;;;;32.50;17.80;;;;;;;-3.19;74.03;101842.91;107638;1254;89841;-58
2023/02/10 02:37:20;;;;;;;31.40;17.20;;;;;;;-3.25;74.01;101843.72;107613;1255;95963;-57
2023/02/10 02:39:58;;;;;;;36.90;18.80;;;;;;;-3.32;74.07;101842.58;107591;1252;82543;-58
2023/02/10 02:42:44;;;;;;;33.30;18.00;;;;;;;-3.29;74.43;101836.64;107641;1254;82328;-58
2023/02/10 02:45:35;;;;;;;33.20;17.50;;;;;;;-3.22;74.83;101835.30;107604;1251;98054;-60
2023/02/10 02:48:34;;;;;;;32.20;17.50;;;;;;;-3.16;74.69;101832.91;107697;1255;85825;-60
2023/02/10 02:51:22;;;;;;;32.00;17.30;;;;;;;-3.06;74.84;101826.28;107495;1256;95927;-60
2023/02/10 02:54:11;;;;;;;33.00;17.90;;;;;;;-2.91;75.05;101824.40;107529;1257;80351;-58
2023/02/10 02:57:01;;;;;;;31.30;17.90;;;;;;;-2.80;75.00;101826.02;107547;1253;83169;-54
2023/02/10 02:59:49;;;;;;;31.80;17.50;;;;;;;-2.72;74.72;101822.45;107510;1257;98122;-60
2023/02/10 03:02:29;;;;;;;31.30;16.90;;;;;;;-2.61;75.03;101823.35;107546;1257;87563;-59
2023/02/10 03:05:10;;;;;;;28.50;16.60;;;;;;;-2.56;74.96;101826.48;107496;1254;95169;-58
2023/02/10 03:07:44;;;;;;;28.40;15.70;;;;;;;-2.57;74.93;101832.88;107523;1258;80125;-60
2023/02/10 03:10:24;;;;;;;32.10;17.80;;;;;;;-2.59;74.73;101833.69;107500;1254;82187;-61
2023/02/10 03:13:06;;;;;;;31.90;17.40;;;;;;;-2.61;74.67;101826.34;107517;1257;98638;-60
2023/02/10 03:15:47;;;;;;;33.50;17.90;;;;;;;-2.62;74.83;101823.24;107499;1254;88985;-60
2023/02/10 03:18:32;;;;;;;33.30;18.20;;;;;;;-2.65;74.75;101814.89;107493;1259;93978;-57
2023/02/10 03:21:15;;;;;;;31.30;17.30;;;;;;;-2.66;74.76;101811.79;107536;1256;79140;-57
2023/02/10 03:24:00;;;;;;;34.10;17.00;;;;;;;-2.71;74.93;101804.05;107534;1254;82600;-60
2023/02/10 03:26:40;;;;;;;30.50;17.80;;;;;;;-2.72;74.64;101805.70;107515;1258;97450;-60
2023/02/10 03:29:23;;;;;;;32.20;17.50;;;;;;;-2.73;74.87;101810.70;107528;1258;89638;-57
2023/02/10 03:32:06;;;;;;;30.10;17.20;;;;;;;-2.74;74.73;101817.98;107517;1257;95537;-58
2023/02/10 03:34:49;;;;;;;29.80;16.70;;;;;;;-2.80;74.87;101817.71;107514;1255;79597;-61
2023/02/10 03:37:26;;;;;;;30.40;16.80;;;;;;;-2.84;74.76;101813.50;107507;1254;81945;-61
2023/02/10 03:40:08;;;;;;;32.90;17.80;;;;;;;-2.90;75.05;101809.71;107494;1253;98138;-55
2023/02/10 03:42:50;;;;;;;33.30;17.50;;;;;;;-2.93;75.13;101806.34;107527;1257;88435;-59
2023/02/10 03:45:32;;;;;;;33.00;16.80;;;;;;;-2.95;75.29;101800.77;107486;1257;95187;-60
2023/02/10 03:48:13;;;;;;;31.10;16.60;;;;;;;-2.98;75.04;101799.15;107511;1257;81054;-61
2023/02/10 03:50:55;;;;;;;29.20;17.10;;;;;;;-3.00;75.31;101800.64;107513;1255;82440;-59
2023/02/10 03:53:35;;;;;;;30.60;16.20;;;;;;;-2.99;75.21;101807.30;107513;1255;98539;-57
2023/02/10 03:56:12;;;;;;;29.20;16.40;;;;;;;-3.02;75.01;101815.70;107523;1255;89291;-57
2023/02/10 03:58:48;;;;;;;31.30;16.40;;;;;;;-3.04;75.18;101822.13;107521;1257;94079;-55
2023/02/10 04:01:28;;;;;;;28.10;15.40;;;;;;;-3.09;74.96;101818.65;107527;1255;80985;-56
2023/02/10 04:04:13;;;;;;;28.60;16.90;;;;;;;-3.15;75.11;101817.52;107517;1258;81900;-56
2023/02/10 04:06:49;;;;;;;28.40;15.30;;;;;;;-3.18;75.37;101820.16;107513;1261;98222;-57
2023/02/10 04:09:29;;;;;;;30.00;17.20;;;;;;;-3.24;75.38;101820.38;107538;1258;89296;-58
2023/02/10 04:12:03;;;;;;;31.80;16.50;;;;;;;-3.24;75.47;101822.17;107497;1257;94809;-57
2023/02/10 04:14:43;;;;;;;31.10;16.60;;;;;;;-3.29;75.21;101829.94;107527;1254;81259;-59
2023/02/10 04:17:27;;;;;;;34.80;17.60;;;;;;;-3.34;75.39;101833.68;107463;1257;80552;-59
2023/02/10 04:20:07;;;;;;;29.80;17.80;;;;;;;-3.35;75.46;101834.65;107481;1254;98395;-57
2023/02/10 04:22:47;;;;;;;30.60;16.20;;;;;;;-3.33;75.47;101828.92;107546;1255;89602;-60
2023/02/10 04:25:27;;;;;;;31.70;17.00;;;;;;;-3.28;75.58;101827.08;107476;1254;95220;-60
2023/02/10 04:28:10;;;;;;;34.80;16.80;;;;;;;-3.25;75.62;101835.24;107501;1257;79876;-59
2023/02/10 04:30:49;;;;;;;32.80;17.80;;;;;;;-3.28;75.80;101838.40;107531;1254;82895;-58
2023/02/10 04:33:31;;;;;;;31.10;16.80;;;;;;;-3.32;75.85;101838.73;107525;1257;98340;-59
2023/02/10 04:36:10;;;;;;;31.60;17.30;;;;;;;-3.35;75.67;101837.27;107507;1257;89988;-60
2023/02/10 04:38:51;;;;;;;32.40;18.60;;;;;;;-3.35;75.80;101835.84;107506;1257;95393;-58
2023/02/10 04:41:27;;;;;;;36.60;18.20;;;;;;;-3.27;75.89;101830.22;107474;1255;80920;-58
2023/02/10 04:44:05;;;;;;;33.70;17.70;;;;;;;-3.16;76.15;101825.52;107540;1260;82716;-55
2023/02/10 04:46:48;;;;;;;33.60;17.10;;;;;;;-3.06;76.02;101822.41;107500;1257;97652;-55
2023/02/10 04:49:30;;;;;;;30.50;17.10;;;;;;;-2.92;76.11;101820.19;107510;1257;86472;-54
2023/02/10 04:52:11;;;;;;;32.30;16.90;;;;;;;-2.78;76.36;101815.31;107492;1258;93327;-56
2023/02/10 04:54:51;;;;;;;31.00;17.10;;;;;;;-2.67;76.24;101822.41;107524;1257;79594;-55
2023/02/10 04:57:30;;;;;;;34.90;18.00;;;;;;;-2.57;76.40;101822.81;107513;1254;82016;-56
2023/02/10 05:00:10;;;;;;;31.00;17.50;;;;;;;-2.48;76.37;101822.39;107508;1257;97512;-58
2023/02/10 05:02:52;;;;;;;29.70;17.40;;;;;;;-2.41;76.16;101825.58;107528;1255;89380;-55
2023/02/10 05:05:34;;;;;;;31.40;17.50;;;;;;;-2.35;76.15;101813.48;107507;1256;94867;-55
2023/02/10 05:08:16;;;;;;;29.50;16.90;;;;;;;-2.32;76.08;101804.15;107529;1260;80518;-55
2023/02/10 05:10:54;;;;;;;33.00;18.50;;;;;;;-2.32;75.85;101795.52;107491;1257;82690;-55
2023/02/10 05:13:30;;;;;;;32.20;17.40;;;;;;;-2.31;75.83;101793.89;107548;1257;99234;-58
2023/02/10 05:16:10;;;;;;;30.50;17.10;;;;;;;-2.32;75.84;101793.05;107483;1257;88854;-58
2023/02/10 05:18:45;;;;;;;29.90;17.30;;;;;;;-2.32;75.68;101789.36;107516;1254;94935;-58
2023/02/10 05:21:19;;;;;;;29.90;17.30;;;;;;;-2.28;75.80;101791.10;107519;1253;81162;-58
2023/02/10 05:24:02;;;;;;;32.00;17.50;;;;;;;-2.23;76.03;101788.36;107531;1254;82987;-58
2023/02/10 05:26:47;;;;;;;30.40;17.50;;;;;;;-2.16;75.80;101780.29;107476;1258;98548;-58
2023/02/10 05:29:30;;;;;;;31.20;17.10;;;;;;;-2.08;75.83;101803.89;107514;1258;88590;-55
2023/02/10 05:32:13;;;;;;;33.60;18.20;;;;;;;-2.04;75.86;101805.98;107462;1257;95124;-54
2023/02/10 05:34:49;;;;;;;29.60;16.60;;;;;;;-2.01;75.94;101805.11;107486;1258;76162;-58
2023/02/10 05:37:29;;;;;;;27.50;16.90;;;;;;;-1.98;75.84;101808.29;107530;1254;81130;-58
2023/02/10 05:40:10;;;;;;;26.30;15.50;;;;;;;-1.97;75.73;101806.65;107497;1257;99152;-55
2023/02/10 05:42:51;;;;;;;30.30;16.80;;;;;;;-1.97;75.89;101806.49;107553;1255;89668;-56
2023/02/10 05:45:30;;;;;;;29.20;16.40;;;;;;;-1.96;75.75;101807.33;107473;1257;93188;-55
2023/02/10 05:48:07;;;;;;;30.60;17.10;;;;;;;-1.93;75.90;101814.40;107516;1254;81153;-58
2023/02/10 05:50:50;;;;;;;32.80;18.90;;;;;;;-1.89;75.79;101818.08;107511;1254;80424;-58
2023/02/10 05:53:35;;;;;;;32.20;18.20;;;;;;;-1.84;75.74;101827.39;107279;1257;97722;-56
2023/02/10 05:56:13;;;;;;;31.70;17.20;;;;;;;-1.81;75.78;101825.80;107524;1254;88186;-56
2023/02/10 05:58:57;;;;;;;29.10;17.60;;;;;;;-1.75;75.83;101820.59;107530;1254;95815;-58
2023/02/10 06:01:42;;;;;;;30.60;17.70;;;;;;;-1.69;75.77;101813.06;107473;1254;79817;-57
2023/02/10 06:04:24;;;;;;;31.70;18.40;;;;;;;-1.65;75.56;101811.81;107499;1257;83035;-56
2023/02/10 06:07:01;;;;;;;29.60;17.10;;;;;;;-1.60;75.67;101817.55;107506;1254;98241;-56
2023/02/10 06:09:44;;;;;;;33.80;17.20;;;;;;;-1.57;75.76;101817.20;107546;1257;88949;-55
2023/02/10 06:12:20;;;;;;;27.60;16.30;;;;;;;-1.54;75.53;101816.35;107474;1258;95473;-55
2023/02/10 06:15:00;;;;;;;28.70;18.00;;;;;;;-1.54;75.59;101822.66;107490;1253;80052;-58
2023/02/10 06:17:36;;;;;;;30.20;17.50;;;;;;;-1.51;75.71;101821.69;107543;1257;82493;-58
2023/02/10 06:20:13;;;;;;;30.40;17.90;;;;;;;-1.50;75.47;101818.09;107473;1254;96311;-59
2023/02/10 06:22:54;;;;;;;35.20;18.40;;;;;;;-1.47;75.59;101819.35;107540;1254;89652;-61
2023/02/10 06:25:35;;;;;;;29.70;18.20;;;;;;;-1.44;75.58;101817.20;107436;1254;95377;-60
2023/02/10 06:28:11;;;;;;;33.20;18.20;;;;;;;-1.37;75.66;101821.66;107499;1255;81701;-58
2023/02/10 06:30:49;;;;;;;32.50;18.10;;;;;;;-1.30;75.68;101817.93;107496;1254;82874;-56
2023/02/10 06:33:34;;;;;;;32.70;18.90;;;;;;;-1.23;75.84;101819.84;107535;1254;98397;-58
2023/02/10 06:36:10;;;;;;;33.40;18.10;;;;;;;-1.15;75.70;101819.96;107486;1254;87493;-57
2023/02/10 06:38:48;;;;;;;33.40;18.40;;;;;;;-1.07;75.50;101827.17;107553;1257;94275;-58
2023/02/10 06:41:29;;;;;;;35.70;19.50;;;;;;;-1.03;75.56;101826.23;107479;1257;78322;-59
2023/02/10 06:44:10;;;;;;;31.20;17.50;;;;;;;-0.97;75.45;101826.27;107536;1254;82941;-60
2023/02/10 06:46:48;;;;;;;33.90;20.10;;;;;;;-0.96;75.47;101829.21;107497;1255;98605;-59
2023/02/10 06:49:25;;;;;;;32.00;18.30;;;;;;;-0.92;75.50;101833.77;107568;1257;88029;-56
2023/02/10 06:52:04;;;;;;;33.20;19.40;;;;;;;-0.88;75.40;101828.07;107466;1254;95116;-63
2023/02/10 06:54:42;;;;;;;34.30;19.50;;;;;;;-0.79;75.39;101822.10;107508;1254;81640;-55
2023/02/10 06:57:23;;;;;;;32.50;19.40;;;;;;;-0.67;75.24;101826.76;107479;1254;82666;-55
2023/02/10 07:00:07;;;;;;;33.70;19.80;;;;;;;-0.44;75.18;101828.48;107466;1255;97179;-55
2023/02/10 07:02:47;;;;;;;39.30;22.10;;;;;;;0.04;75.19;101833.00;107496;1257;89413;-59
2023/02/10 07:05:24;;;;;;;33.10;19.40;;;;;;;0.62;74.90;101836.91;107454;1260;95249;-58
2023/02/10 07:08:00;;;;;;;32.60;19.30;;;;;;;1.05;74.69;101840.45;107531;1257;78128;-59
2023/02/10 07:10:40;;;;;;;35.00;20.10;;;;;;;1.22;74.25;101839.98;107536;1254;82010;-58
2023/02/10 07:13:25;;;;;;;32.50;19.60;;;;;;;1.33;73.85;101847.41;107486;1258;98906;-55
2023/02/10 07:16:07;;;;;;;29.30;19.60;;;;;;;1.32;73.62;101843.60;107436;1254;88930;-59
2023/02/10 07:18:48;;;;;;;33.00;20.70;;;;;;;1.34;73.32;101844.73;107528;1253;93266;-59
2023/02/10 07:21:36;;;;;;;31.10;19.50;;;;;;;1.49;73.16;101847.84;107471;1257;79728;-58
2023/02/10 07:24:19;;;;;;;32.60;19.50;;;;;;;1.78;73.16;101844.90;107515;1254;82564;-58
2023/02/10 07:27:04;;;;;;;31.60;18.80;;;;;;;1.99;72.97;101842.84;107439;1257;98424;-58
2023/02/10 07:29:45;;;;;;;32.40;19.90;;;;;;;2.17;72.38;101843.61;107521;1256;88697;-56
2023/02/10 07:32:24;;;;;;;33.70;20.60;;;;;;;2.58;71.91;101847.23;107488;1257;93367;-56
2023/02/10 07:35:07;;;;;;;32.90;20.90;;;;;;;3.07;71.96;101854.55;107460;1257;79313;-59
2023/02/10 07:37:52;;;;;;;32.40;19.30;;;;;;;3.44;71.65;101852.85;107521;1254;82940;-57
2023/02/10 07:40:33;;;;;;;33.40;21.00;;;;;;;3.79;71.10;101855.27;107527;1254;99214;-56
2023/02/10 07:43:17;;;;;;;31.60;20.70;;;;;;;3.74;69.84;101851.39;107515;1254;88161;-57
2023/02/10 07:45:57;;;;;;;32.50;20.80;;;;;;;3.68;70.23;101850.05;107469;1254;95915;-58
2023/02/10 07:48:39;;;;;;;30.80;19.80;;;;;;;4.15;69.77;101846.41;107486;1255;79980;-59
2023/02/10 07:51:21;;;;;;;30.60;20.40;;;;;;;4.95;69.24;101841.92;107480;1257;82310;-59
2023/02/10 07:54:03;;;;;;;32.70;22.10;;;;;;;5.14;68.67;101845.60;107493;1253;99241;-55
2023/02/10 07:56:44;;;;;;;31.80;21.20;;;;;;;5.34;68.80;101852.06;107496;1253;88405;-55
2023/02/10 07:59:26;;;;;;;32.70;21.50;;;;;;;5.53;67.80;101841.77;107521;1257;95456;-56
2023/02/10 08:02:08;;;;;;;29.30;20.70;;;;;;;5.57;66.77;101840.94;107515;1254;77841;-56
2023/02/10 08:04:46;;;;;;;28.10;18.30;;;;;;;5.24;66.32;101838.52;107504;1252;82588;-56
2023/02/10 08:07:27;;;;;;;28.00;20.00;;;;;;;4.92;66.17;101831.10;107476;1254;97339;-56
2023/02/10 08:10:08;;;;;;;32.80;22.20;;;;;;;4.77;66.04;101832.95;107455;1257;89210;-55
2023/02/10 08:12:48;;;;;;;33.20;21.80;;;;;;;4.41;66.22;101832.84;107501;1257;94219;-58
2023/02/10 08:15:29;;;;;;;30.60;21.90;;;;;;;3.94;66.03;101835.46;107408;1254;77588;-59
2023/02/10 08:18:11;;;;;;;31.50;20.70;;;;;;;3.46;66.54;101841.29;107527;1254;82688;-55
2023/02/10 08:20:48;;;;;;;31.00;20.60;;;;;;;3.07;66.48;101844.75;107478;1253;97561;-56
2023/02/10 08:23:22;;;;;;;31.10;21.10;;;;;;;2.75;67.10;101849.80;107513;1257;87736;-58
2023/02/10 08:25:57;;;;;;;;;;;;;;;2.57;67.08;101842.69;107487;1254;94885;-57
2023/02/10 08:28:37;;;;;;;33.50;21.50;;;;;;;2.21;67.83;101854.39;107513;1254;79947;-58
2023/02/10 08:31:12;;;;;;;29.30;19.70;;;;;;;2.18;68.24;101854.05;107491;1254;82154;-58
2023/02/10 08:33:52;;;;;;;35.60;21.40;;;;;;;2.13;68.34;101854.39;107536;1254;98423;-55
2023/02/10 08:36:33;;;;;;;31.70;22.20;;;;;;;2.06;68.59;101849.86;107512;1256;88965;-56
2023/02/10 08:39:12;;;;;;;34.60;22.00;;;;;;;2.00;68.88;101852.03;107493;1257;93351;-56
2023/02/10 08:41:54;;;;;;;34.20;21.10;;;;;;;1.92;69.00;101856.30;107481;1257;79841;-56
2023/02/10 08:44:34;;;;;;;34.80;21.90;;;;;;;1.86;69.31;101857.01;107497;1254;81835;-58
2023/02/10 08:47:19;;;;;;;34.50;21.60;;;;;;;1.80;69.57;101858.60;107517;1253;99725;-58
2023/02/10 08:50:01;;;;;;;34.40;21.80;;;;;;;1.77;69.82;101854.91;107498;1257;88466;-58
2023/02/10 08:52:43;;;;;;;34.50;22.70;;;;;;;1.67;69.98;101851.85;107481;1257;94802;-56
2023/02/10 08:55:20;;;;;;;33.60;21.20;;;;;;;1.64;70.34;101859.45;107486;1257;78696;-55
2023/02/10 08:57:56;;;;;;;37.50;23.70;;;;;;;1.62;70.46;101870.78;107455;1257;82368;-52
2023/02/10 09:00:36;;;;;;;33.60;20.60;;;;;;;1.59;70.62;101880.24;107488;1254;97359;-56
2023/02/10 09:03:12;;;;;;;36.20;22.40;;;;;;;1.63;70.90;101885.48;107495;1254;88940;-58
2023/02/10 09:05:49;;;;;;;40.00;23.40;;;;;;;1.72;70.84;101891.81;107467;1252;95978;-58
2023/02/10 09:08:41;;;;;;;36.50;23.60;;;;;;;1.77;71.11;101895.77;107383;1257;80375;-56
2023/02/10 09:11:23;;;;;;;41.50;22.90;;;;;;;1.74;71.20;101896.46;107478;1254;81873;-56
2023/02/10 09:13:58;;;;;;;38.40;23.40;;;;;;;1.75;71.47;101893.23;107493;1257;98979;-56
2023/02/10 09:16:38;;;;;;;37.50;21.90;;;;;;;1.84;71.56;101885.77;107475;1254;88948;-55
2023/02/10 09:19:17;;;;;;;33.90;21.40;;;;;;;2.00;71.33;101894.52;107452;1257;95541;-59
2023/02/10 09:21:55;;;;;;;38.00;22.90;;;;;;;2.19;71.60;101890.55;107451;1257;80275;-58
2023/02/10 09:24:33;;;;;;;38.60;21.40;;;;;;;2.37;71.61;101889.39;107463;1254;81839;-59
2023/02/10 09:27:09;;;;;;;36.10;21.90;;;;;;;2.46;71.45;101893.74;107508;1254;97035;-59
2023/02/10 09:29:45;;;;;;;33.30;21.90;;;;;;;2.43;71.38;101897.73;107490;1256;88071;-57
2023/02/10 09:32:31;;;;;;;41.30;23.20;;;;;;;2.32;71.50;101903.54;107448;1254;94662;-59
2023/02/10 09:35:09;;;;;;;44.10;24.80;;;;;;;2.20;71.64;101902.39;107464;1253;77818;-56
2023/02/10 09:37:46;;;;;;;76.40;35.10;;;;;;;2.16;71.54;101916.70;107511;1257;83107;-59
2023/02/10 09:40:28;;;;;;;70.20;34.40;;;;;;;2.10;71.69;101914.96;107486;1254;99404;-60
2023/02/10 09:43:23;;;;;;;55.00;30.00;;;;;;;2.01;71.87;101915.72;107473;1254;87761;-59
2023/02/10 09:46:17;;;;;;;49.20;26.10;;;;;;;1.98;71.93;101903.16;107445;1254;94732;-59
2023/02/10 09:49:14;;;;;;;44.40;25.30;;;;;;;2.00;72.02;101904.81;107449;1253;78244;-60
2023/02/10 09:52:03;;;;;;;38.60;22.70;;;;;;;2.03;71.90;101907.44;107508;1254;81803;-59
2023/02/10 09:54:45;;;;;;;40.10;23.70;;;;;;;1.97;71.73;101905.86;107372;1259;95619;-56
2023/02/10 09:57:34;;;;;;;38.10;22.40;;;;;;;1.98;72.03;101907.04;107313;1254;86679;-56
2023/02/10 10:00:24;;;;;;;36.80;23.00;;;;;;;2.05;72.04;101901.84;107318;1255;94029;-56
2023/02/10 10:03:02;;;;;;;34.60;22.10;;;;;;;2.18;71.99;101904.14;107387;1259;80056;-58
2023/02/10 10:05:51;;;;;;;36.80;22.30;;;;;;;2.28;72.07;101901.53;107359;1254;83080;-59
2023/02/10 10:08:36;;;;;;;34.20;21.60;;;;;;;2.40;72.30;101896.09;107378;1254;97055;-59
2023/02/10 10:11:26;;;;;;;35.60;22.20;;;;;;;2.57;72.16;101893.40;107378;1259;87618;-59
2023/02/10 10:14:04;;;;;;;35.50;22.50;;;;;;;2.63;72.02;101891.35;107421;1255;94593;-57
2023/02/10 10:17:07;;;;;;;33.20;22.10;;;;;;;2.59;71.73;101879.02;107356;1256;79630;-56
2023/02/10 10:20:00;;;;;;;37.00;21.40;;;;;;;2.48;71.92;101875.65;107385;1254;83422;-59
2023/02/10 10:22:53;;;;;;;36.60;22.10;;;;;;;2.39;71.78;101876.44;107369;1254;99744;-59
2023/02/10 10:26:03;;;;;;;37.80;23.70;;;;;;;2.28;72.02;101887.83;107356;1256;88439;-60
2023/02/10 10:28:56;;;;;;;36.50;22.90;;;;;;;2.24;72.35;101897.30;107396;1259;95518;-57
2023/02/10 10:31:43;;;;;;;37.90;22.50;;;;;;;2.18;72.33;101902.52;107338;1255;79506;-57
2023/02/10 10:34:25;;;;;;;37.00;22.90;;;;;;;2.19;72.39;101902.27;107416;1254;82154;-55
2023/02/10 10:37:06;;;;;;;;;;;;;;;2.23;72.73;101899.70;107360;1256;98450;-58
2023/02/10 10:39:46;;;;;;;33.80;21.30;;;;;;;2.31;72.73;101906.67;107422;1258;88762;-56
2023/02/10 10:42:35;;;;;;;38.70;22.10;;;;;;;2.28;72.66;101909.16;107347;1259;93462;-57
2023/02/10 10:45:21;;;;;;;35.90;22.50;;;;;;;2.26;72.70;101905.19;107320;1254;82313;-58
2023/02/10 10:48:07;;;;;;;35.60;22.00;;;;;;;2.23;72.81;101898.28;107384;1254;82305;-59
2023/02/10 10:50:43;;;;;;;;;;;;;;;2.19;72.92;101901.44;107258;1254;98881;-59
2023/02/10 10:53:31;;;;;;;37.80;22.80;;;;;;;2.11;73.05;101904.60;107383;1255;89278;-60
2023/02/10 10:56:14;;;;;;;33.80;21.30;;;;;;;2.11;73.32;101909.58;107343;1254;94225;-58
2023/02/10 10:58:53;;;;;;;37.40;22.70;;;;;;;2.11;73.36;101920.38;107397;1254;79999;-56
2023/02/10 11:01:41;;;;;;;39.90;22.90;;;;;;;2.15;73.45;101919.95;107399;1254;82881;-55
2023/02/10 11:04:23;;;;;;;39.90;23.70;;;;;;;2.20;73.38;101915.55;107389;1254;99301;-56
2023/02/10 11:07:12;;;;;;;38.60;23.60;;;;;;;2.21;73.42;101916.17;107342;1259;89009;-59
2023/02/10 11:09:59;;;;;;;40.60;23.90;;;;;;;2.30;73.64;101910.09;107389;1254;95070;-60
2023/02/10 11:12:39;;;;;;;39.10;22.30;;;;;;;2.45;73.72;101906.64;107393;1254;78843;-57
2023/02/10 11:15:38;;;;;;;36.70;21.90;;;;;;;2.60;73.60;101904.23;107398;1254;81312;-56
2023/02/10 11:18:25;;;;;;;35.70;22.30;;;;;;;2.65;73.64;101906.70;107389;1254;98467;-57
2023/02/10 11:21:09;;;;;;;35.40;21.60;;;;;;;2.70;73.65;101897.84;107342;1254;88983;-56
2023/02/10 11:23:54;;;;;;;37.70;21.90;;;;;;;2.76;73.63;101899.77;107365;1254;95230;-59
2023/02/10 11:26:35;;;;;;;38.60;21.70;;;;;;;2.83;73.61;101908.84;107354;1254;81337;-60
2023/02/10 11:29:20;;;;;;;34.40;22.50;;;;;;;2.91;73.60;101918.98;107355;1254;83279;-60
2023/02/10 11:31:55;;;;;;;;;;;;;;;2.96;73.49;101918.67;107380;1259;98596;-60
2023/02/10 11:34:40;;;;;;;36.90;22.60;;;;;;;2.97;73.60;101910.04;107411;1255;87701;-60
2023/02/10 11:37:27;;;;;;;39.20;22.10;;;;;;;3.24;73.59;101910.36;107365;1254;95744;-60
2023/02/10 11:40:17;;;;;;;36.60;23.00;;;;;;;3.51;73.44;101918.55;107354;1254;78503;-59
2023/02/10 11:42:55;;;;;;;38.40;21.50;;;;;;;3.80;73.38;101911.91;107419;1254;83119;-55
2023/02/10 11:45:35;;;;;;;41.10;23.10;;;;;;;3.99;73.27;101907.85;107378;1255;96650;-55
2023/02/10 11:48:22;;;;;;;40.10;23.20;;;;;;;4.05;73.07;101912.41;107397;1255;88772;-59
2023/02/10 11:51:15;;;;;;;37.20;21.30;;;;;;;4.09;72.71;101925.82;107351;1254;95564;-59
2023/02/10 11:53:52;;;;;;;47.60;23.70;;;;;;;3.97;72.84;101940.23;107405;1254;79659;-53
2023/02/10 11:59:41;;;;;;;35.40;20.90;;;;;;;3.71;72.89;101934.45;107363;1258;99683;-57
2023/02/10 12:02:30;;;;;;;36.10;21.40;;;;;;;3.59;72.57;101943.14;107399;1254;87749;-63
2023/02/10 12:05:32;;;;;;;41.40;21.80;;;;;;;3.48;72.73;101946.93;107380;1255;91823;-59
2023/02/10 12:08:26;;;;;;;39.30;21.80;;;;;;;3.45;72.68;101938.61;107361;1254;79116;-56
2023/02/10 12:11:13;;;;;;;37.00;22.30;;;;;;;3.43;72.78;101935.15;107379;1254;82084;-57
2023/02/10 12:14:04;;;;;;;43.00;23.10;;;;;;;3.44;72.79;101934.71;107374;1258;98637;-60
2023/02/10 12:16:57;;;;;;;35.50;21.70;;;;;;;3.54;72.84;101936.92;107350;1254;87260;-59
2023/02/10 12:19:45;;;;;;;33.80;20.40;;;;;;;3.57;72.94;101936.34;107367;1254;95103;-50